Time;durP1;ratioP1;P1;durP2;ratioP2;P2;SDS_P1;SDS_P2;PMS_P1;PMS_P2;Temp;Humidity;BMP_temperature;BMP_pressure;BME280_temperature;BME280_humidity;BME280_pressure;Samples;Min_cycle;Max_cycle;Signal;HPM_P1;HPM_P2
2022/06/25 00:01:26;;;;;;;3.60;3.13;;;19.10;99.90;;;;;;4996081;28;20433;-68
2022/06/25 00:03:52;;;;;;;3.07;2.77;;;19.00;99.90;;;;;;5001745;28;20598;-67
2022/06/25 00:06:18;;;;;;;3.70;2.83;;;19.10;99.90;;;;;;5004149;28;20448;-68
2022/06/25 00:08:45;;;;;;;4.63;2.60;;;19.20;99.90;;;;;;5002396;28;20185;-67
2022/06/25 00:14:09;;;;;;;2.50;2.30;;;19.10;99.90;;;;;;4971030;28;20441;-68
2022/06/25 00:16:35;;;;;;;3.20;2.77;;;19.30;99.90;;;;;;5006751;28;20891;-67
2022/06/25 00:19:02;;;;;;;5.67;3.20;;;19.20;99.90;;;;;;5002177;28;20437;-67
2022/06/25 00:21:28;;;;;;;2.87;2.40;;;19.20;99.90;;;;;;5003125;28;20436;-67
2022/06/25 00:23:54;;;;;;;3.27;2.80;;;19.20;99.90;;;;;;5004610;28;20434;-67
2022/06/25 00:26:19;;;;;;;2.97;2.60;;;19.20;99.90;;;;;;5001291;28;20263;-67
2022/06/25 00:28:45;;;;;;;4.00;2.40;;;19.20;99.90;;;;;;5001079;28;20949;-67
2022/06/25 00:31:11;;;;;;;3.43;2.70;;;19.30;99.90;;;;;;5000645;28;20726;-67
2022/06/25 00:33:36;;;;;;;2.50;2.30;;;19.20;99.90;;;;;;5000053;28;20607;-67
2022/06/25 00:36:02;;;;;;;3.00;2.70;;;19.20;99.90;;;;;;5001864;28;20222;-67
2022/06/25 00:38:28;;;;;;;2.90;2.60;;;19.20;99.90;;;;;;5001479;28;20189;-68
2022/06/25 00:40:53;;;;;;;4.20;2.33;;;19.20;99.90;;;;;;5003210;28;22195;-67
2022/06/25 00:43:19;;;;;;;3.13;2.67;;;19.20;99.90;;;;;;4999903;28;20722;-67
2022/06/25 00:45:45;;;;;;;3.10;2.63;;;19.20;99.90;;;;;;5004944;28;20370;-67
2022/06/25 00:48:10;;;;;;;4.30;2.63;;;19.10;99.90;;;;;;5000147;28;20189;-67
2022/06/25 00:50:36;;;;;;;6.80;2.90;;;19.10;99.90;;;;;;5005177;28;20946;-67
2022/06/25 00:53:04;;;;;;;4.20;2.60;;;19.20;99.90;;;;;;4999539;28;20267;-67
2022/06/25 00:55:30;;;;;;;3.47;2.90;;;19.20;99.90;;;;;;5002089;28;20216;-67
2022/06/25 00:58:00;;;;;;;3.70;2.40;;;19.30;99.90;;;;;;5002658;28;20522;-67
2022/06/25 01:00:25;;;;;;;6.20;2.60;;;19.30;99.90;;;;;;5000677;28;20573;-67
2022/06/25 01:02:51;;;;;;;2.60;2.40;;;19.20;99.90;;;;;;5004449;28;20518;-67
2022/06/25 01:05:17;;;;;;;10.20;2.87;;;19.20;99.90;;;;;;5000275;28;20223;-67
2022/06/25 01:07:48;;;;;;;2.70;2.17;;;19.30;99.90;;;;;;4996596;28;20178;-67
2022/06/25 01:10:14;;;;;;;3.13;2.33;;;19.20;99.90;;;;;;4996059;28;20208;-67
2022/06/25 01:12:40;;;;;;;6.40;2.70;;;19.20;99.90;;;;;;5001020;28;20598;-67
2022/06/25 01:15:17;;;;;;;6.10;2.43;;;19.30;99.90;;;;;;4997054;28;21013;-67
2022/06/25 01:17:45;;;;;;;9.13;2.70;;;19.20;99.90;;;;;;4998055;28;20189;-66
2022/06/25 01:20:12;;;;;;;3.53;2.10;;;19.20;99.90;;;;;;4996577;28;20851;-67
2022/06/25 01:22:37;;;;;;;8.50;2.23;;;19.10;99.90;;;;;;4996595;28;20512;-67
2022/06/25 01:25:06;;;;;;;4.10;2.73;;;19.10;99.90;;;;;;4997293;28;20574;-67
2022/06/25 01:27:33;;;;;;;4.20;2.70;;;19.10;99.90;;;;;;4997671;28;20264;-67
2022/06/25 01:29:59;;;;;;;10.90;3.20;;;19.10;99.90;;;;;;4997277;28;20548;-67
2022/06/25 01:32:25;;;;;;;4.30;2.97;;;19.20;99.90;;;;;;4983220;28;20567;-67
2022/06/25 01:34:50;;;;;;;5.20;3.20;;;19.10;99.90;;;;;;4994507;28;20291;-67
2022/06/25 01:37:16;;;;;;;3.10;2.20;;;19.10;99.90;;;;;;4998815;28;20587;-67
2022/06/25 01:39:41;;;;;;;6.03;2.50;;;19.10;99.90;;;;;;5000952;28;20211;-67
2022/06/25 01:42:58;;;;;;;3.20;2.80;;;19.20;99.90;;;;;;4998933;28;20197;-68
2022/06/25 01:44:52;;;;;;;6.47;2.80;;;19.10;99.90;;;;;;4984237;28;20243;-67
2022/06/25 01:47:18;;;;;;;3.80;2.73;;;19.10;99.90;;;;;;4997573;28;20463;-67
2022/06/25 01:49:43;;;;;;;5.80;3.20;;;19.10;99.90;;;;;;4995521;28;20201;-67
2022/06/25 01:52:12;;;;;;;3.47;2.70;;;19.10;99.90;;;;;;4995547;28;20291;-67
2022/06/25 01:54:37;;;;;;;5.00;3.30;;;19.10;99.90;;;;;;4998125;28;20216;-67
2022/06/25 01:57:03;;;;;;;4.23;2.83;;;19.10;99.90;;;;;;4998111;28;20437;-67
2022/06/25 01:59:29;;;;;;;3.10;2.80;;;19.10;99.90;;;;;;4999191;28;20213;-67
2022/06/25 02:01:54;;;;;;;3.53;2.50;;;19.20;99.90;;;;;;4996987;28;20201;-67
2022/06/25 02:04:20;;;;;;;3.30;3.00;;;19.10;99.90;;;;;;4997341;28;20189;-67
2022/06/25 02:06:45;;;;;;;3.43;2.63;;;19.10;99.90;;;;;;4998019;28;20232;-67
2022/06/25 02:09:11;;;;;;;3.00;2.70;;;19.10;99.90;;;;;;5002363;28;20196;-67
2022/06/25 02:11:36;;;;;;;3.10;2.70;;;19.10;99.90;;;;;;4998905;28;20276;-67
2022/06/25 02:14:02;;;;;;;3.30;3.00;;;19.00;99.90;;;;;;4998133;28;20192;-67
2022/06/25 02:16:28;;;;;;;2.60;2.40;;;19.00;99.90;;;;;;4994337;28;20631;-67
2022/06/25 02:18:53;;;;;;;4.17;2.50;;;18.90;99.90;;;;;;4996706;28;20195;-67
2022/06/25 02:21:19;;;;;;;3.53;2.50;;;19.00;99.90;;;;;;4992523;28;20194;-67
2022/06/25 02:23:44;;;;;;;3.93;2.57;;;18.90;99.90;;;;;;4996968;28;20192;-67
2022/06/25 02:26:10;;;;;;;5.63;2.40;;;18.90;99.90;;;;;;4995053;28;20232;-67
2022/06/25 02:28:35;;;;;;;5.63;2.90;;;18.90;99.90;;;;;;4997075;28;20200;-67
2022/06/25 02:31:01;;;;;;;5.63;2.60;;;18.90;99.90;;;;;;4996148;28;20208;-67
2022/06/25 02:33:27;;;;;;;2.90;2.60;;;18.80;99.90;;;;;;4997622;28;20305;-67
2022/06/25 02:35:53;;;;;;;3.93;2.80;;;18.90;99.90;;;;;;4997022;28;20614;-68
2022/06/25 02:38:18;;;;;;;5.10;3.10;;;18.80;99.90;;;;;;4992574;28;20692;-67
2022/06/25 02:40:46;;;;;;;3.47;3.00;;;18.80;99.90;;;;;;4996805;28;20182;-67
2022/06/25 02:43:12;;;;;;;3.13;2.70;;;18.70;99.90;;;;;;4998824;28;20667;-67
2022/06/25 02:45:37;;;;;;;3.13;2.80;;;18.70;99.90;;;;;;4995237;28;20529;-67
2022/06/25 02:48:03;;;;;;;3.10;2.50;;;18.70;99.90;;;;;;4996126;28;20777;-67
2022/06/25 02:50:29;;;;;;;4.97;2.83;;;18.70;99.90;;;;;;5039081;22;20271;-66
2022/06/25 02:52:55;;;;;;;3.67;3.00;;;18.70;99.90;;;;;;5030793;28;20610;-66
2022/06/25 02:58:54;;;;;;;3.23;2.87;;;18.70;99.90;;;;;;5034610;28;20187;-66
2022/06/25 03:00:51;;;;;;;4.50;2.70;;;18.80;99.90;;;;;;5028909;28;20456;-66
2022/06/25 03:03:17;;;;;;;3.20;2.83;;;18.70;99.90;;;;;;5028319;28;20529;-66
2022/06/25 03:05:43;;;;;;;6.30;3.17;;;18.80;99.90;;;;;;5028836;28;20471;-66
2022/06/25 03:08:08;;;;;;;5.17;2.83;;;18.80;99.90;;;;;;5026226;28;20467;-66
2022/06/25 03:10:34;;;;;;;5.77;3.40;;;18.80;99.90;;;;;;5027698;28;20204;-66
2022/06/25 03:12:59;;;;;;;5.47;2.80;;;18.70;99.90;;;;;;5025079;28;20212;-66
2022/06/25 03:15:25;;;;;;;4.23;2.87;;;18.80;99.90;;;;;;5028385;28;20580;-66
2022/06/25 03:17:50;;;;;;;3.67;2.73;;;18.70;99.90;;;;;;5009022;28;20176;-66
2022/06/25 03:20:16;;;;;;;4.57;2.80;;;18.70;99.90;;;;;;5026681;28;20204;-66
2022/06/25 03:22:42;;;;;;;8.60;2.90;;;18.80;99.90;;;;;;5027744;28;20575;-66
2022/06/25 03:25:08;;;;;;;3.90;3.13;;;18.80;99.90;;;;;;5028557;28;21039;-66
2022/06/25 03:27:34;;;;;;;3.40;3.10;;;18.80;99.90;;;;;;5027938;28;20179;-66
2022/06/25 03:29:59;;;;;;;5.53;2.63;;;18.80;99.90;;;;;;5028527;28;20512;-66
2022/06/25 03:32:25;;;;;;;4.10;3.07;;;18.80;99.90;;;;;;5028101;28;20251;-66
2022/06/25 03:34:50;;;;;;;5.40;2.83;;;18.80;99.90;;;;;;5032085;28;20183;-67
2022/06/25 03:37:16;;;;;;;6.90;3.00;;;18.70;99.90;;;;;;5026632;28;20184;-65
2022/06/25 03:39:42;;;;;;;3.23;2.67;;;18.70;99.90;;;;;;5032767;28;20942;-65
2022/06/25 03:42:07;;;;;;;4.30;2.53;;;18.80;99.90;;;;;;5012122;28;20188;-66
2022/06/25 03:44:33;;;;;;;8.67;3.17;;;18.70;99.90;;;;;;5029737;28;20206;-66
2022/06/25 03:46:59;;;;;;;4.63;3.17;;;18.80;99.90;;;;;;5027480;28;20192;-66
2022/06/25 03:49:25;;;;;;;5.93;2.50;;;18.80;99.90;;;;;;5027945;28;20290;-66
2022/06/25 03:51:51;;;;;;;3.83;2.70;;;18.90;99.90;;;;;;5030040;28;20739;-66
2022/06/25 03:54:16;;;;;;;2.87;2.57;;;18.90;99.90;;;;;;5030331;28;20747;-67
2022/06/25 03:56:42;;;;;;;4.70;2.70;;;18.80;99.90;;;;;;5031961;28;21088;-67
2022/06/25 03:59:08;;;;;;;3.60;2.50;;;18.90;99.90;;;;;;5026152;28;20204;-66
2022/06/25 04:01:35;;;;;;;2.80;2.50;;;18.80;99.90;;;;;;5030800;28;20184;-66
2022/06/25 04:04:01;;;;;;;3.10;2.80;;;18.90;99.90;;;;;;5031038;28;20191;-66
2022/06/25 04:06:26;;;;;;;3.03;2.70;;;18.90;99.90;;;;;;5030029;28;20438;-66
2022/06/25 04:08:52;;;;;;;2.80;2.60;;;18.90;99.90;;;;;;5032507;28;20589;-66
2022/06/25 04:11:18;;;;;;;9.43;3.10;;;18.90;99.90;;;;;;5029980;28;20660;-65
2022/06/25 04:13:43;;;;;;;4.40;2.50;;;19.00;99.90;;;;;;5030484;28;20216;-66
2022/06/25 04:16:09;;;;;;;3.93;3.03;;;19.00;99.90;;;;;;5028515;28;20177;-66
2022/06/25 04:18:34;;;;;;;3.73;2.70;;;18.90;99.90;;;;;;5009975;28;20189;-68
2022/06/25 04:21:00;;;;;;;6.17;3.43;;;18.90;99.90;;;;;;5028427;28;20180;-66
2022/06/25 04:23:26;;;;;;;4.30;2.30;;;18.70;99.90;;;;;;5029464;28;20279;-66
2022/06/25 04:25:52;;;;;;;3.63;2.87;;;18.70;99.90;;;;;;5029914;28;20176;-65
2022/06/25 04:31:01;;;;;;;3.10;2.60;;;18.70;99.90;;;;;;5025129;28;20644;-66
2022/06/25 04:33:27;;;;;;;4.33;2.50;;;18.70;99.90;;;;;;5024803;28;20524;-65
2022/06/25 04:35:53;;;;;;;4.60;2.80;;;18.70;99.90;;;;;;5012626;28;20787;-66
2022/06/25 04:38:18;;;;;;;3.20;2.60;;;18.70;99.90;;;;;;5029611;28;20180;-66
2022/06/25 04:40:44;;;;;;;4.83;2.70;;;18.70;99.90;;;;;;5028582;28;20204;-66
2022/06/25 04:43:09;;;;;;;2.70;2.50;;;18.80;99.90;;;;;;5030792;28;20275;-66
2022/06/25 04:45:35;;;;;;;4.43;2.47;;;18.80;99.90;;;;;;5033818;28;20189;-66
2022/06/25 04:48:02;;;;;;;7.80;2.90;;;18.70;99.90;;;;;;5034978;28;20187;-67
2022/06/25 04:50:29;;;;;;;3.00;2.70;;;18.70;99.90;;;;;;5033788;28;20227;-67
2022/06/25 04:52:54;;;;;;;3.60;2.30;;;18.80;99.90;;;;;;5031215;28;20469;-66
2022/06/25 04:55:20;;;;;;;5.20;2.40;;;18.80;99.90;;;;;;5029985;28;20822;-66
2022/06/25 04:57:46;;;;;;;3.87;2.60;;;18.80;99.90;;;;;;5013914;28;20259;-66
2022/06/25 05:00:12;;;;;;;3.50;2.73;;;18.80;99.90;;;;;;5030933;28;20212;-67
2022/06/25 05:02:38;;;;;;;3.70;2.57;;;18.80;99.90;;;;;;5034619;28;20192;-65
2022/06/25 05:05:04;;;;;;;5.33;2.70;;;18.80;99.90;;;;;;5035173;28;20430;-66
2022/06/25 05:07:30;;;;;;;2.80;2.30;;;18.80;99.90;;;;;;5030827;28;20429;-65
2022/06/25 05:09:56;;;;;;;5.90;3.00;;;18.70;99.90;;;;;;5026379;28;20466;-66
2022/06/25 05:15:06;;;;;;;3.20;2.63;;;18.90;99.90;;;;;;5030258;28;20709;-65
2022/06/25 05:17:31;;;;;;;2.93;2.47;;;18.80;99.90;;;;;;5032161;28;20434;-65
2022/06/25 05:19:57;;;;;;;3.80;2.53;;;18.90;99.90;;;;;;5026355;28;20446;-65
2022/06/25 05:22:23;;;;;;;4.43;2.60;;;18.80;99.90;;;;;;5031338;28;20294;-65
2022/06/25 05:24:49;;;;;;;3.57;2.90;;;18.90;99.90;;;;;;5029996;28;20199;-65
2022/06/25 05:27:15;;;;;;;3.20;2.63;;;18.90;99.90;;;;;;5033986;28;20438;-65
2022/06/25 05:29:40;;;;;;;3.80;2.77;;;18.90;99.90;;;;;;5026075;28;20454;-66
2022/06/25 05:32:06;;;;;;;14.07;2.83;;;18.90;99.90;;;;;;5032497;28;20211;-66
2022/06/25 05:34:32;;;;;;;2.60;2.40;;;19.00;99.90;;;;;;5033328;28;20241;-66
2022/06/25 05:36:57;;;;;;;3.63;2.73;;;19.10;99.90;;;;;;5033421;28;20425;-66
2022/06/25 05:39:23;;;;;;;2.90;2.53;;;19.00;99.90;;;;;;5031224;28;20582;-65
2022/06/25 05:41:48;;;;;;;5.30;2.30;;;19.00;99.90;;;;;;5034847;28;20209;-66
2022/06/25 05:44:14;;;;;;;3.13;2.50;;;19.00;99.90;;;;;;5032562;28;20563;-65
2022/06/25 05:46:40;;;;;;;4.90;2.80;;;19.00;99.90;;;;;;5029602;28;20196;-66
2022/06/25 05:49:05;;;;;;;4.70;2.63;;;19.10;99.90;;;;;;5026886;28;20211;-65
2022/06/25 05:51:31;;;;;;;3.23;2.43;;;19.20;99.90;;;;;;5027992;28;20723;-65
2022/06/25 05:53:57;;;;;;;3.60;2.20;;;19.20;99.90;;;;;;5030357;28;20239;-65
2022/06/25 05:56:22;;;;;;;3.60;2.33;;;19.30;99.90;;;;;;5027625;28;20181;-66
2022/06/25 05:58:48;;;;;;;8.93;2.80;;;19.30;99.90;;;;;;5029555;28;21896;-66
2022/06/25 06:01:13;;;;;;;2.77;2.43;;;19.30;99.90;;;;;;5028152;28;20246;-66
2022/06/25 06:03:39;;;;;;;5.93;2.20;;;19.30;99.90;;;;;;5030293;28;20180;-66
2022/06/25 06:06:05;;;;;;;3.27;2.07;;;19.40;99.90;;;;;;5032867;28;20218;-66
2022/06/25 06:08:30;;;;;;;7.23;2.87;;;19.50;99.90;;;;;;5031318;28;20271;-67
2022/06/25 06:10:56;;;;;;;7.33;2.70;;;19.50;99.90;;;;;;5029225;28;20192;-65
2022/06/25 06:13:21;;;;;;;5.90;2.50;;;19.60;99.90;;;;;;5029696;28;20212;-66
2022/06/25 06:15:47;;;;;;;2.73;2.37;;;19.60;99.90;;;;;;5032918;28;20464;-66
2022/06/25 06:18:13;;;;;;;3.13;2.27;;;19.70;99.90;;;;;;5028493;28;20208;-66
2022/06/25 06:20:38;;;;;;;3.73;1.97;;;19.80;99.90;;;;;;5026768;28;20212;-67
2022/06/25 06:23:05;;;;;;;5.40;2.50;;;19.80;99.90;;;;;;5031919;28;20198;-67
2022/06/25 06:25:30;;;;;;;3.47;2.43;;;19.80;99.90;;;;;;5029854;28;20199;-67
2022/06/25 06:27:56;;;;;;;2.80;2.40;;;19.70;99.90;;;;;;5026340;28;20438;-66
2022/06/25 06:30:22;;;;;;;4.00;2.40;;;19.90;99.90;;;;;;5031980;28;20578;-66
2022/06/25 06:32:48;;;;;;;3.80;2.00;;;19.80;99.90;;;;;;5029608;28;20282;-66
2022/06/25 06:35:13;;;;;;;2.60;2.20;;;20.00;99.90;;;;;;5030277;28;20940;-65
2022/06/25 06:37:39;;;;;;;2.77;2.00;;;20.10;99.90;;;;;;5010374;28;20188;-66
2022/06/25 06:40:06;;;;;;;4.07;2.17;;;20.10;99.90;;;;;;5029611;28;20270;-67
2022/06/25 06:42:31;;;;;;;2.30;2.10;;;20.30;99.90;;;;;;5031972;28;20202;-65
2022/06/25 06:44:57;;;;;;;4.47;2.30;;;20.40;99.90;;;;;;5029318;28;20443;-65
2022/06/25 06:47:22;;;;;;;2.97;2.23;;;20.40;99.90;;;;;;5030269;28;20218;-65
2022/06/25 06:49:48;;;;;;;2.40;2.13;;;20.40;99.90;;;;;;5030328;28;20223;-66
2022/06/25 06:52:14;;;;;;;4.50;2.20;;;20.50;99.90;;;;;;5030273;28;20214;-65
2022/06/25 06:54:40;;;;;;;2.63;1.80;;;20.60;99.90;;;;;;5025516;28;20211;-67
2022/06/25 06:57:06;;;;;;;2.63;2.00;;;20.70;99.90;;;;;;5031968;28;20250;-66
2022/06/25 06:59:32;;;;;;;3.30;2.03;;;20.80;99.90;;;;;;5009478;28;20498;-66
2022/06/25 07:01:58;;;;;;;3.90;3.10;;;20.80;99.90;;;;;;5032861;28;20441;-66
2022/06/25 07:04:23;;;;;;;3.73;3.30;;;20.80;99.90;;;;;;5030761;28;20191;-66
2022/06/25 07:06:49;;;;;;;3.17;2.50;;;20.70;99.90;;;;;;5029587;28;20191;-66
2022/06/25 07:09:15;;;;;;;2.40;2.10;;;20.90;99.90;;;;;;5027290;28;20215;-66
2022/06/25 07:11:40;;;;;;;5.73;2.87;;;21.00;99.90;;;;;;5026834;28;20188;-66
2022/06/25 07:14:06;;;;;;;4.10;2.77;;;21.00;99.90;;;;;;5009685;28;20197;-67
2022/06/25 07:16:34;;;;;;;4.97;4.50;;;21.00;99.90;;;;;;5030151;28;20186;-66
2022/06/25 07:19:00;;;;;;;3.83;2.50;;;21.20;99.90;;;;;;5032797;28;20208;-66
2022/06/25 07:21:30;;;;;;;3.80;2.10;;;21.20;99.90;;;;;;5024010;28;20828;-66
2022/06/25 07:23:56;;;;;;;2.40;2.20;;;21.30;99.90;;;;;;5033974;28;20906;-66
2022/06/25 07:26:22;;;;;;;4.63;2.50;;;21.30;99.90;;;;;;5031563;28;20448;-66
2022/06/25 07:28:48;;;;;;;4.10;2.50;;;21.30;99.90;;;;;;5027850;28;20441;-66
2022/06/25 07:31:14;;;;;;;3.23;2.40;;;21.30;99.90;;;;;;5033381;28;20430;-66
2022/06/25 07:33:40;;;;;;;6.30;2.30;;;21.20;99.90;;;;;;5030085;28;20474;-66
2022/06/25 07:36:07;;;;;;;3.20;2.80;;;21.20;99.90;;;;;;5027213;28;20259;-66
2022/06/25 07:38:33;;;;;;;3.43;3.13;;;21.30;99.90;;;;;;5028558;28;20181;-65
2022/06/25 07:41:00;;;;;;;3.50;2.23;;;21.40;99.90;;;;;;5029882;28;20443;-66
2022/06/25 07:43:27;;;;;;;5.07;4.03;;;21.40;99.90;;;;;;5026009;28;21568;-66
2022/06/25 07:45:53;;;;;;;2.60;2.30;;;21.50;99.90;;;;;;5026280;28;20431;-66
2022/06/25 07:48:19;;;;;;;3.47;2.57;;;21.60;99.90;;;;;;5030397;28;21238;-66
2022/06/25 07:53:29;;;;;;;2.53;2.23;;;21.60;99.90;;;;;;5032195;28;20731;-66
2022/06/25 07:55:54;;;;;;;6.20;3.30;;;21.70;99.90;;;;;;5026265;28;20534;-66
2022/06/25 07:58:20;;;;;;;5.13;2.60;;;21.80;99.90;;;;;;5031498;28;20207;-66
2022/06/25 08:00:45;;;;;;;5.67;2.40;;;21.90;99.90;;;;;;5026739;28;20749;-65
2022/06/25 08:03:11;;;;;;;3.53;3.10;;;21.70;99.90;;;;;;5028489;28;20185;-66
2022/06/25 08:05:37;;;;;;;2.83;2.13;;;21.80;99.90;;;;;;5025992;28;20272;-66
2022/06/25 08:08:03;;;;;;;3.33;2.67;;;22.00;99.90;;;;;;5027592;28;20188;-66
2022/06/25 08:10:28;;;;;;;2.43;2.23;;;22.00;99.90;;;;;;5030409;28;20200;-66
2022/06/25 08:12:54;;;;;;;2.30;2.10;;;22.10;99.90;;;;;;5028730;28;20243;-66
2022/06/25 08:15:20;;;;;;;4.23;2.60;;;22.10;99.90;;;;;;5032863;28;20176;-66
2022/06/25 08:17:46;;;;;;;4.40;3.70;;;22.20;99.90;;;;;;5033608;28;20180;-66
2022/06/25 08:20:12;;;;;;;5.70;3.60;;;22.30;99.90;;;;;;5026145;28;20250;-66
2022/06/25 08:22:38;;;;;;;3.80;2.57;;;22.30;99.90;;;;;;5037237;28;20430;-66
2022/06/25 08:25:05;;;;;;;3.50;2.07;;;22.30;99.90;;;;;;5031665;28;20429;-66
2022/06/25 08:27:31;;;;;;;3.00;2.47;;;22.40;99.90;;;;;;5033277;28;20191;-66
2022/06/25 08:29:58;;;;;;;10.00;9.00;;;22.40;99.90;;;;;;5015550;28;20466;-66
2022/06/25 08:32:23;;;;;;;6.63;2.40;;;22.40;99.90;;;;;;5031061;28;20469;-66
2022/06/25 08:34:49;;;;;;;3.70;2.17;;;22.50;99.90;;;;;;5033386;28;20938;-65
2022/06/25 08:37:14;;;;;;;3.77;2.50;;;22.50;99.90;;;;;;5034058;28;20568;-66
2022/06/25 08:39:40;;;;;;;3.20;2.33;;;22.50;99.90;;;;;;5034718;28;20207;-66
2022/06/25 08:42:06;;;;;;;3.23;2.43;;;22.60;99.90;;;;;;5034057;28;20612;-66
2022/06/25 08:44:31;;;;;;;2.77;2.30;;;22.80;99.90;;;;;;5032211;28;20207;-66
2022/06/25 08:46:58;;;;;;;3.20;2.80;;;22.70;99.90;;;;;;5033526;28;20254;-66
2022/06/25 08:49:26;;;;;;;7.30;2.40;;;22.80;99.90;;;;;;5029903;28;20300;-66
2022/06/25 08:51:57;;;;;;;2.13;1.90;;;22.90;99.90;;;;;;5028108;28;20435;-66
2022/06/25 08:54:24;;;;;;;3.77;2.80;;;23.00;99.90;;;;;;5032155;28;20793;-67
2022/06/25 08:56:50;;;;;;;3.60;2.60;;;23.00;99.90;;;;;;5030951;28;20433;-66
2022/06/25 08:59:16;;;;;;;3.10;2.10;;;23.10;99.90;;;;;;5026591;28;20450;-65
2022/06/25 09:01:43;;;;;;;2.30;2.10;;;23.10;99.90;;;;;;5033037;28;20542;-66
2022/06/25 09:04:08;;;;;;;2.97;2.20;;;23.20;99.90;;;;;;5035910;28;20423;-66
2022/06/25 09:06:34;;;;;;;3.73;3.00;;;23.30;99.90;;;;;;5032852;28;20437;-67
2022/06/25 09:09:16;;;;;;;3.97;2.53;;;23.20;99.90;;;;;;5029458;28;20203;-67
2022/06/25 09:11:57;;;;;;;3.17;2.87;;;23.30;99.90;;;;;;5027728;28;20652;-67
2022/06/25 09:14:28;;;;;;;3.93;3.20;;;23.40;99.90;;;;;;5033231;28;20441;-67
2022/06/25 09:17:20;;;;;;;3.47;2.70;;;23.50;99.90;;;;;;5032992;28;20535;-65
2022/06/25 09:19:51;;;;;;;2.60;2.40;;;23.60;99.90;;;;;;5026386;28;20447;-66
2022/06/25 09:22:19;;;;;;;4.63;3.00;;;23.70;99.90;;;;;;5030276;28;20427;-66
2022/06/25 09:24:45;;;;;;;3.67;2.47;;;23.80;99.90;;;;;;5023302;28;20554;-65
2022/06/25 09:27:11;;;;;;;2.90;2.40;;;23.90;99.90;;;;;;5028593;28;20529;-66
2022/06/25 09:29:43;;;;;;;4.10;3.77;;;23.90;99.90;;;;;;5035165;28;20200;-66
2022/06/25 09:32:09;;;;;;;2.90;2.50;;;24.00;99.90;;;;;;5032147;28;20459;-67
2022/06/25 09:34:36;;;;;;;4.80;4.30;;;24.20;99.90;;;;;;5031036;28;20439;-67
2022/06/25 09:37:19;;;;;;;6.00;3.07;;;24.30;99.90;;;;;;5028137;28;20439;-67
2022/06/25 09:39:46;;;;;;;3.10;2.70;;;24.40;99.90;;;;;;5031278;28;20439;-64
2022/06/25 09:42:26;;;;;;;3.30;2.57;;;24.40;99.90;;;;;;5031811;28;20499;-66
2022/06/25 09:45:06;;;;;;;3.47;2.77;;;24.50;99.90;;;;;;5029081;28;21084;-66
2022/06/25 09:47:36;;;;;;;6.00;5.17;;;24.50;99.90;;;;;;5028682;28;20427;-66
2022/06/25 09:50:15;;;;;;;4.00;3.10;;;24.50;99.90;;;;;;5029727;28;20811;-65
2022/06/25 09:52:55;;;;;;;4.97;2.57;;;24.50;99.90;;;;;;5027958;28;20462;-66
2022/06/25 09:55:32;;;;;;;3.63;3.00;;;24.50;99.90;;;;;;5030987;28;20438;-66
2022/06/25 09:58:00;;;;;;;3.03;2.60;;;24.60;99.90;;;;;;5030084;28;21050;-67
2022/06/25 10:00:26;;;;;;;2.67;2.20;;;24.60;99.90;;;;;;5032998;28;20474;-66
2022/06/25 10:02:55;;;;;;;3.33;2.40;;;24.60;99.90;;;;;;5033130;28;20431;-66
2022/06/25 10:05:37;;;;;;;3.37;2.60;;;24.60;99.90;;;;;;5025483;28;20441;-66
2022/06/25 10:08:09;;;;;;;5.20;3.53;;;24.80;99.90;;;;;;5027424;28;20435;-67
2022/06/25 10:10:47;;;;;;;3.10;2.73;;;24.90;99.90;;;;;;5028556;28;20447;-67
2022/06/25 10:13:13;;;;;;;2.40;2.20;;;24.90;99.90;;;;;;5031507;28;20461;-66
2022/06/25 10:15:38;;;;;;;2.80;2.60;;;25.00;99.90;;;;;;5029314;28;20812;-66
2022/06/25 10:18:07;;;;;;;3.47;2.80;;;25.10;99.90;;;;;;5030676;28;20422;-66
2022/06/25 10:20:34;;;;;;;7.07;6.37;;;25.10;99.90;;;;;;5028947;28;20205;-67
2022/06/25 10:23:04;;;;;;;5.40;3.50;;;25.20;99.90;;;;;;5026103;28;20435;-66
2022/06/25 10:25:33;;;;;;;3.37;3.07;;;25.40;99.90;;;;;;5026240;28;20438;-66
2022/06/25 10:28:14;;;;;;;2.73;2.53;;;25.60;99.90;;;;;;5033704;28;21027;-66
2022/06/25 10:30:51;;;;;;;3.20;2.90;;;25.80;99.90;;;;;;5029474;28;20516;-66
2022/06/25 10:33:21;;;;;;;2.90;2.60;;;25.90;99.90;;;;;;5025920;28;20463;-66
2022/06/25 10:35:48;;;;;;;3.90;2.73;;;26.00;99.90;;;;;;5028360;28;20429;-66
2022/06/25 10:38:21;;;;;;;9.93;3.13;;;26.10;99.90;;;;;;5011498;28;20779;-66
2022/06/25 10:40:51;;;;;;;4.27;2.57;;;26.30;99.90;;;;;;5032091;28;21234;-66
2022/06/25 10:43:49;;;;;;;3.63;2.73;;;26.50;99.90;;;;;;5033344;28;20427;-66
2022/06/25 10:46:29;;;;;;;3.63;2.70;;;26.70;99.90;;;;;;5033013;28;20445;-66
2022/06/25 10:49:02;;;;;;;2.70;2.40;;;26.80;99.90;;;;;;5025449;28;20454;-65
2022/06/25 10:51:32;;;;;;;3.23;2.50;;;26.90;99.90;;;;;;5029613;28;20997;-65
2022/06/25 10:53:59;;;;;;;2.80;2.50;;;27.00;99.90;;;;;;5029479;28;20917;-66
2022/06/25 10:56:25;;;;;;;5.97;3.40;;;27.00;99.90;;;;;;5031654;28;20435;-66
2022/06/25 10:58:51;;;;;;;3.90;2.97;;;27.00;99.90;;;;;;5031080;28;20991;-65
2022/06/25 11:01:27;;;;;;;7.93;3.23;;;26.90;99.90;;;;;;5029113;28;20208;-65
2022/06/25 11:03:58;;;;;;;3.23;2.70;;;27.00;99.90;;;;;;5031879;28;20449;-65
2022/06/25 11:06:29;;;;;;;2.87;2.67;;;27.10;99.90;;;;;;5025598;28;20467;-65
2022/06/25 11:08:55;;;;;;;3.43;3.07;;;27.20;99.90;;;;;;5030724;28;20450;-65
2022/06/25 11:11:29;;;;;;;9.20;3.30;;;27.10;99.90;;;;;;5007175;28;20423;-66
2022/06/25 11:13:57;;;;;;;6.73;2.90;;;27.00;99.90;;;;;;5029368;28;20466;-66
2022/06/25 11:16:24;;;;;;;4.00;3.60;;;26.90;99.90;;;;;;5024753;28;20450;-65
2022/06/25 11:18:58;;;;;;;4.20;2.87;;;27.00;99.90;;;;;;5028240;28;20734;-65
2022/06/25 11:21:34;;;;;;;7.90;3.03;;;27.30;99.90;;;;;;5025280;28;20470;-66
2022/06/25 11:24:12;;;;;;;5.13;3.23;;;27.50;99.90;;;;;;5030138;28;20433;-66
2022/06/25 11:29:27;;;;;;;6.30;3.40;;;27.80;99.90;;;;;;5028535;28;20600;-66
2022/06/25 11:31:54;;;;;;;4.00;2.93;;;28.00;99.90;;;;;;5031139;28;20408;-66
2022/06/25 11:34:22;;;;;;;3.37;2.43;;;28.10;99.90;;;;;;5030152;28;20418;-67
2022/06/25 11:37:16;;;;;;;4.27;2.97;;;28.30;99.90;;;;;;5028531;28;20435;-66
2022/06/25 11:39:46;;;;;;;2.57;2.37;;;28.40;99.90;;;;;;5025403;28;20450;-66
2022/06/25 11:42:12;;;;;;;3.23;2.87;;;28.40;99.90;;;;;;5028937;28;20538;-66
2022/06/25 11:44:45;;;;;;;4.40;2.90;;;28.50;99.90;;;;;;5031857;28;20488;-66
2022/06/25 11:47:30;;;;;;;3.97;3.13;;;28.40;99.90;;;;;;5027702;28;20438;-66
2022/06/25 11:49:56;;;;;;;3.50;2.93;;;28.60;99.90;;;;;;5027122;28;20490;-66
2022/06/25 11:52:24;;;;;;;3.50;3.03;;;28.70;99.90;;;;;;5035393;28;20995;-67
2022/06/25 11:54:51;;;;;;;2.80;2.60;;;28.70;99.90;;;;;;5030005;28;20219;-66
2022/06/25 11:57:24;;;;;;;2.80;2.60;;;28.60;99.90;;;;;;5029814;28;20995;-66
2022/06/25 11:59:51;;;;;;;5.70;3.00;;;28.70;99.90;;;;;;5028041;28;20870;-66
2022/06/25 12:02:17;;;;;;;4.63;3.47;;;28.80;99.90;;;;;;5024304;28;20774;-66
2022/06/25 12:04:51;;;;;;;2.67;2.47;;;29.20;99.90;;;;;;5024414;28;20486;-66
2022/06/25 12:07:23;;;;;;;3.27;2.97;;;30.30;99.90;;;;;;5029250;28;20426;-66
2022/06/25 12:09:51;;;;;;;2.87;2.67;;;32.50;99.90;;;;;;5006166;28;20487;-66
2022/06/25 12:12:18;;;;;;;3.93;2.90;;;35.10;98.80;;;;;;5032060;28;20544;-66
2022/06/25 12:14:45;;;;;;;4.17;2.73;;;37.10;91.70;;;;;;5026453;28;20511;-67
2022/06/25 12:17:11;;;;;;;2.47;2.27;;;39.00;81.20;;;;;;5030100;28;20514;-67
2022/06/25 12:19:53;;;;;;;4.37;2.73;;;39.80;65.60;;;;;;5029286;28;20633;-67
2022/06/25 12:22:28;;;;;;;2.93;2.67;;;40.00;60.10;;;;;;5025202;28;20188;-67
2022/06/25 12:24:56;;;;;;;3.67;2.67;;;41.20;57.60;;;;;;5028344;28;20593;-66
2022/06/25 12:27:25;;;;;;;2.47;2.27;;;42.10;52.90;;;;;;5028515;28;20423;-67
2022/06/25 12:29:55;;;;;;;2.67;2.40;;;42.20;50.20;;;;;;5007661;28;20459;-67
2022/06/25 12:32:38;;;;;;;3.33;2.50;;;40.80;48.30;;;;;;5029251;28;20427;-66
2022/06/25 12:35:18;;;;;;;3.33;2.93;;;38.60;50.10;;;;;;5030942;28;20402;-66
2022/06/25 12:38:15;;;;;;;2.87;2.67;;;37.50;52.10;;;;;;5006704;28;20404;-66
2022/06/25 12:40:48;;;;;;;3.17;2.87;;;37.10;53.20;;;;;;5024218;28;21103;-66
2022/06/25 12:43:15;;;;;;;3.20;2.90;;;38.10;52.60;;;;;;5028634;28;21153;-66
2022/06/25 12:45:44;;;;;;;3.83;3.43;;;38.40;51.00;;;;;;5024886;28;20428;-66
2022/06/25 12:48:10;;;;;;;3.30;3.00;;;38.90;51.00;;;;;;5026275;28;20454;-66
2022/06/25 12:50:37;;;;;;;3.87;3.57;;;38.40;51.10;;;;;;5029865;28;20473;-66
2022/06/25 12:53:11;;;;;;;3.23;2.90;;;39.30;50.50;;;;;;5026107;28;20493;-67
2022/06/25 12:55:38;;;;;;;3.07;2.77;;;38.70;49.10;;;;;;5022699;28;20959;-67
2022/06/25 12:58:10;;;;;;;3.90;3.00;;;39.40;49.50;;;;;;5026849;28;20433;-67
2022/06/25 13:00:37;;;;;;;7.87;2.77;;;39.70;48.50;;;;;;5020670;28;20533;-66
2022/06/25 13:03:05;;;;;;;3.40;2.70;;;40.50;47.70;;;;;;5029861;28;20394;-67
2022/06/25 13:05:31;;;;;;;4.73;2.63;;;39.80;47.00;;;;;;5030991;28;20512;-67